Flight Track Log - Related Links

Times and Time Zones

All times are in EDT time to prevent confusion due to time zone crossing. See the SWA756 flight status page for this flight to view local times or setup timezone preferences in your user account.

Time Position Orientation Groundspeed Altitude Reporting Facility
EDT Latitude Longitude Course Direction KTS MPH feet Rate Location/Type
Tue 07:22:50 AM 33.5703 -86.7489 84° East 132 152 1,600  Level Atlanta Center
Tue 07:23:44 AM 33.5733 -86.7117 84° East 174 200 3,000 1,586 Climbing Atlanta Center
Tue 07:24:17 AM 33.5503 -86.7108 178° South 182 209 3,900 1,935 Climbing Atlanta Center
Tue 07:25:17 AM 33.4933 -86.7439 206° Southwest 205 236 6,000 2,650 Climbing Atlanta Center
Tue 07:26:17 AM 33.4478 -86.8222 235° Southwest 240 276 9,200 3,050 Climbing Atlanta Center
Tue 07:27:17 AM 33.3978 -86.9053 234° Southwest 282 325 12,100 3,250 Climbing Atlanta Center
Tue 07:28:17 AM 33.3433 -87.0003 236° Southwest 327 376 15,700 3,350 Climbing Atlanta Center
Tue 07:29:17 AM 33.2822 -87.1028 235° Southwest 359 413 18,800 3,150 Climbing Atlanta Center
Tue 07:30:17 AM 33.2256 -87.2075 237° Southwest 377 434 22,000 2,250 Climbing Atlanta Center
Tue 07:31:17 AM 33.1622 -87.3119 234° Southwest 389 448 23,300 2,067 Climbing Atlanta Center
Tue 07:33:46 AM 32.9958 -87.5881 234° Southwest 412 474 29,200 2,268 Climbing Memphis Center
Tue 07:34:46 AM 32.9189 -87.6919 229° Southwest 417 480 31,200 2,050 Climbing Memphis Center
Tue 07:35:46 AM 32.8419 -87.8006 230° Southwest 429 494 33,300 1,400 Climbing Memphis Center
Tue 07:36:46 AM 32.7667 -87.9064 230° Southwest 429 494 34,000 1,200 Climbing Memphis Center
Tue 07:37:46 AM 32.6978 -88.0119 232° Southwest 429 494 35,700 1,700 Climbing Memphis Center
Tue 07:38:46 AM 32.6289 -88.1225 234° Southwest 424 488 37,400 1,150 Climbing Memphis Center
Tue 07:39:46 AM 32.5869 -88.2419 247° West 405 466 38,000 300 Climbing Memphis Center
Tue 07:40:46 AM 32.5453 -88.3586 247° West 394 453 38,000  Level Memphis Center
Tue 07:41:46 AM 32.4950 -88.4903 246° West 394 453 38,000  Level Memphis Center
Tue 07:42:46 AM 32.4550 -88.6044 247° West 394 453 38,000  Level Memphis Center
Tue 07:43:46 AM 32.4128 -88.7208 247° West 389 448 38,000  Level Memphis Center
Tue 07:44:46 AM 32.3703 -88.8372 247° West 389 448 38,000  Level Memphis Center
Tue 07:45:46 AM 32.3361 -88.9558 251° West 389 448 38,000  Level Memphis Center
Tue 07:46:46 AM 32.3019 -89.0719 251° West 389 448 38,000  Level Memphis Center
Tue 07:47:46 AM 32.2678 -89.1903 251° West 389 448 38,000  Level Memphis Center
Tue 07:48:46 AM 32.2333 -89.3111 251° West 389 448 38,000  Level Memphis Center
Tue 07:49:46 AM 32.1967 -89.4294 250° West 389 448 38,000  Level Memphis Center
Tue 07:50:46 AM 32.1619 -89.5500 251° West 389 448 38,000  Level Memphis Center
Tue 07:51:46 AM 32.1272 -89.6706 251° West 389 448 38,000  Level Memphis Center
Tue 07:52:46 AM 32.0922 -89.7883 251° West 389 448 38,000  Level Memphis Center
Tue 07:53:46 AM 32.0572 -89.9089 251° West 389 448 38,000  Level Memphis Center
Tue 07:54:46 AM 32.0222 -90.0267 251° West 389 448 38,000  Level Memphis Center
Tue 07:55:46 AM 31.9869 -90.1442 251° West 389 448 38,000  Level Memphis Center
Tue 07:56:46 AM 31.9517 -90.2642 251° West 389 448 38,000  Level Memphis Center
Tue 07:57:46 AM 31.9161 -90.3794 250° West 389 448 38,000  Level Memphis Center
Tue 07:59:59 AM 31.8417 -90.6294 251° West 383 441 38,000  Level Houston Center
Tue 08:01:00 AM 31.8056 -90.7472 250° West 386 444 38,000  Level Houston Center
Tue 08:02:02 AM 31.7708 -90.8644 251° West 384 442 38,000  Level Houston Center
Tue 08:03:03 AM 31.7350 -90.9817 250° West 385 443 38,000  Level Houston Center
Tue 08:04:04 AM 31.6967 -91.1047 250° West 384 442 38,000  Level Houston Center
Tue 08:05:06 AM 31.6594 -91.2206 249° West 382 440 38,000  Level Houston Center
Tue 08:06:07 AM 31.6247 -91.3364 251° West 380 437 38,000  Level Houston Center
Tue 08:07:08 AM 31.5819 -91.4742 250° West 377 434 38,000  Level Houston Center
Tue 08:08:10 AM 31.5456 -91.5892 250° West 376 433 38,000  Level Houston Center
Tue 08:09:11 AM 31.5103 -91.7022 250° West 372 428 38,000  Level Houston Center
Tue 08:10:12 AM 31.4747 -91.8142 250° West 369 425 38,000  Level Houston Center
Tue 08:11:14 AM 31.4403 -91.9275 250° West 369 425 38,000  Level Houston Center
Tue 08:12:15 AM 31.3997 -92.0506 249° West 367 422 38,000  Level Houston Center
Tue 08:13:17 AM 31.3631 -92.1636 249° West 370 426 38,000  Level Houston Center
Tue 08:14:18 AM 31.3278 -92.2758 250° West 370 426 38,000  Level Houston Center
Tue 08:15:20 AM 31.2919 -92.3867 249° West 366 421 38,000  Level Houston Center
Tue 08:16:21 AM 31.2550 -92.5006 249° West 373 429 38,000  Level Houston Center
Tue 08:17:23 AM 31.2147 -92.6097 247° West 369 425 38,000  Level Houston Center
Tue 08:18:24 AM 31.1753 -92.7200 247° West 368 423 38,000  Level Houston Center
Tue 08:19:26 AM 31.1333 -92.8297 246° West 369 425 38,000  Level Houston Center
Tue 08:20:27 AM 31.0847 -92.9617 247° West 370 426 38,000  Level Houston Center
Tue 08:21:29 AM 31.0450 -93.0706 247° West 368 423 38,000  Level Houston Center
Tue 08:22:30 AM 31.0053 -93.1794 247° West 367 422 38,000  Level Houston Center
Tue 08:23:32 AM 30.9644 -93.2872 246° West 366 421 38,000  Level Houston Center
Tue 08:24:34 AM 30.9242 -93.3958 247° West 367 422 38,000  Level Houston Center
Tue 08:25:35 AM 30.8819 -93.5061 246° West 372 428 38,000 -293 Level Houston Center
Tue 08:26:37 AM 30.8339 -93.6375 247° West 371 427 37,400 -1,500 Descending Houston Center
Tue 08:27:39 AM 30.7931 -93.7433 246° West 366 421 34,900 -1,659 Descending Houston Center
Tue 08:28:40 AM 30.7525 -93.8514 246° West 366 421 34,000 -1,366 Descending Houston Center
Tue 08:29:42 AM 30.7092 -93.9631 246° West 378 435 32,100 -1,935 Descending Houston Center
Tue 08:30:44 AM 30.6639 -94.0822 246° West 402 463 30,000 -2,146 Descending Houston Center
Tue 08:31:45 AM 30.6189 -94.2008 246° West 404 465 27,700 -2,977 Descending Houston Center
Tue 08:32:53 AM 30.5558 -94.3661 246° West 432 497 23,600 -3,194 Descending Houston Center
Tue 08:33:49 AM 30.5117 -94.4736 245° Southwest 422 486 21,100 -2,877 Descending Houston Center
Tue 08:34:06 AM 30.4950 -94.5172 246° West 417 480 20,100 -2,852 Descending Houston Center
Tue 08:34:50 AM 30.4481 -94.5914 234° Southwest 404 465 18,200 -2,557 Descending Houston Center
Tue 08:35:07 AM 30.4311 -94.6175 233° Southwest 388 447 17,500 -1,935 Descending Houston Center
Tue 08:35:52 AM 30.3944 -94.6736 233° Southwest 385 443 16,200 -2,262 Descending Houston Center
Tue 08:36:08 AM 30.3692 -94.7153 235° Southwest 369 425 15,200 -2,226 Descending Houston Center
Tue 08:36:54 AM 30.3339 -94.7672 232° Southwest 366 421 13,900 -2,164 Descending Houston Center
Tue 08:37:09 AM 30.3067 -94.8103 234° Southwest 352 405 13,000 -774 Descending Houston Center
Tue 08:37:56 AM 30.2667 -94.8714 233° Southwest 341 392 13,100 -194 Climbing Houston Center
Tue 08:38:11 AM 30.2500 -94.8975 234° Southwest 326 375 12,800 -885 Descending Houston Center
Tue 08:38:57 AM 30.2133 -94.9556 234° Southwest 328 377 12,200 -889 Descending Houston Center
Tue 08:39:59 AM 30.1586 -95.0381 233° Southwest 324 373 11,200 -1,016 Descending Houston Center
Tue 08:41:01 AM 30.0883 -95.0911 213° Southwest 308 354 10,100 -532 Descending Houston Center
Tue 08:42:03 AM 30.0153 -95.1231 201° Southwest 282 325 10,100  Level Houston Center
Tue 08:43:04 AM 29.9439 -95.1533 200° South 275 316 10,100 -49 Level Houston Center
Tue 08:44:06 AM 29.8667 -95.1869 201° Southwest 251 289 10,000 -532 Descending Houston Center
Tue 08:45:08 AM 29.8050 -95.2133 200° South 240 276 9,000 -927 Descending Houston Center
Tue 08:46:09 AM 29.7461 -95.2331 196° South 228 262 8,100 -976 Descending Houston Center
Tue 08:47:11 AM 29.6856 -95.2350 182° South 219 252 7,000 -940 Descending Houston Center
Tue 08:48:23 AM 29.6056 -95.2375 182° South 213 245 6,000 -1,024 Descending Houston Center
Tue 08:49:14 AM 29.5639 -95.2642 209° Southwest 214 246 4,900 -1,327 Descending Houston Center
Tue 08:50:16 AM 29.5211 -95.3125 225° Southwest 231 266 3,500 -1,065 Descending Houston Center
Tue 08:51:18 AM 29.5450 -95.3750 294° West 236 272 2,700 -878 Descending Houston Center
Tue 08:52:19 AM 29.5872 -95.3444 32° Northeast 198 228 1,700 -1,024 Descending Houston Center
Tue 08:53:21 AM 29.6211 -95.3061 45° Northeast 181 208 600 -1,065 Descending Houston Center

Login

Don't have an account? Register now (free) for customized features, flight alerts, and more!